sensor_id;sensor_type;location;lat;lon;timestamp;P1;durP1;ratioP1;P2;durP2;ratioP2
73900;SDS011;62235;52.160;7.526;2022-09-09T00:01:49;3.10;;;2.00;;
73900;SDS011;62235;52.160;7.526;2022-09-09T00:07:06;3.67;;;2.13;;
73900;SDS011;62235;52.160;7.526;2022-09-09T00:09:49;8.13;;;2.90;;
73900;SDS011;62235;52.160;7.526;2022-09-09T00:12:23;5.22;;;2.08;;
73900;SDS011;62235;52.160;7.526;2022-09-09T00:15:00;3.05;;;1.90;;
73900;SDS011;62235;52.160;7.526;2022-09-09T00:20:20;5.68;;;2.10;;
73900;SDS011;62235;52.160;7.526;2022-09-09T00:22:57;5.75;;;2.22;;
73900;SDS011;62235;52.160;7.526;2022-09-09T00:25:30;5.45;;;2.40;;
73900;SDS011;62235;52.160;7.526;2022-09-09T00:28:09;5.85;;;2.40;;
73900;SDS011;62235;52.160;7.526;2022-09-09T00:30:40;5.40;;;2.33;;
73900;SDS011;62235;52.160;7.526;2022-09-09T00:33:10;5.85;;;2.10;;
73900;SDS011;62235;52.160;7.526;2022-09-09T00:35:42;3.30;;;2.28;;
73900;SDS011;62235;52.160;7.526;2022-09-09T00:38:33;4.20;;;2.20;;
73900;SDS011;62235;52.160;7.526;2022-09-09T00:41:06;5.85;;;2.13;;
73900;SDS011;62235;52.160;7.526;2022-09-09T00:43:37;5.72;;;2.40;;
73900;SDS011;62235;52.160;7.526;2022-09-09T00:49:15;4.63;;;2.50;;
73900;SDS011;62235;52.160;7.526;2022-09-09T00:54:48;4.53;;;2.33;;
73900;SDS011;62235;52.160;7.526;2022-09-09T00:57:26;5.78;;;2.10;;
73900;SDS011;62235;52.160;7.526;2022-09-09T00:59:58;3.35;;;1.92;;
73900;SDS011;62235;52.160;7.526;2022-09-09T01:02:47;2.72;;;1.48;;
73900;SDS011;62235;52.160;7.526;2022-09-09T01:08:24;2.78;;;1.42;;
73900;SDS011;62235;52.160;7.526;2022-09-09T01:10:58;2.72;;;1.20;;
73900;SDS011;62235;52.160;7.526;2022-09-09T01:13:26;2.88;;;1.35;;
73900;SDS011;62235;52.160;7.526;2022-09-09T01:15:55;5.05;;;1.58;;
73900;SDS011;62235;52.160;7.526;2022-09-09T01:18:23;4.15;;;1.35;;
73900;SDS011;62235;52.160;7.526;2022-09-09T01:26:39;2.75;;;1.38;;
73900;SDS011;62235;52.160;7.526;2022-09-09T01:29:10;3.40;;;1.40;;
73900;SDS011;62235;52.160;7.526;2022-09-09T01:31:38;4.47;;;1.50;;
73900;SDS011;62235;52.160;7.526;2022-09-09T01:34:12;3.50;;;1.30;;
73900;SDS011;62235;52.160;7.526;2022-09-09T01:36:43;4.18;;;1.65;;
73900;SDS011;62235;52.160;7.526;2022-09-09T01:39:11;3.55;;;1.38;;
73900;SDS011;62235;52.160;7.526;2022-09-09T01:41:37;4.30;;;1.45;;
73900;SDS011;62235;52.160;7.526;2022-09-09T01:44:03;3.45;;;1.50;;
73900;SDS011;62235;52.160;7.526;2022-09-09T01:46:28;2.95;;;1.13;;
73900;SDS011;62235;52.160;7.526;2022-09-09T01:48:55;1.80;;;1.00;;
73900;SDS011;62235;52.160;7.526;2022-09-09T01:51:21;3.63;;;1.10;;
73900;SDS011;62235;52.160;7.526;2022-09-09T01:53:46;3.00;;;1.25;;
73900;SDS011;62235;52.160;7.526;2022-09-09T01:56:16;4.03;;;1.40;;
73900;SDS011;62235;52.160;7.526;2022-09-09T01:58:53;2.13;;;1.20;;
73900;SDS011;62235;52.160;7.526;2022-09-09T02:01:46;4.25;;;1.38;;
73900;SDS011;62235;52.160;7.526;2022-09-09T02:04:28;2.83;;;1.60;;
73900;SDS011;62235;52.160;7.526;2022-09-09T02:07:01;3.17;;;1.55;;
73900;SDS011;62235;52.160;7.526;2022-09-09T02:09:26;3.70;;;1.37;;
73900;SDS011;62235;52.160;7.526;2022-09-09T02:14:27;4.55;;;1.52;;
73900;SDS011;62235;52.160;7.526;2022-09-09T02:17:09;3.60;;;1.60;;
73900;SDS011;62235;52.160;7.526;2022-09-09T02:20:10;2.70;;;1.55;;
73900;SDS011;62235;52.160;7.526;2022-09-09T02:22:32;9.18;;;1.67;;
73900;SDS011;62235;52.160;7.526;2022-09-09T02:24:59;3.28;;;1.70;;
73900;SDS011;62235;52.160;7.526;2022-09-09T02:27:26;3.20;;;2.13;;
73900;SDS011;62235;52.160;7.526;2022-09-09T02:29:52;4.97;;;2.40;;
73900;SDS011;62235;52.160;7.526;2022-09-09T02:32:19;6.40;;;2.80;;
73900;SDS011;62235;52.160;7.526;2022-09-09T02:34:47;5.00;;;2.63;;
73900;SDS011;62235;52.160;7.526;2022-09-09T02:37:15;4.88;;;2.70;;
73900;SDS011;62235;52.160;7.526;2022-09-09T02:39:42;6.88;;;3.40;;
73900;SDS011;62235;52.160;7.526;2022-09-09T02:42:08;5.80;;;3.67;;
73900;SDS011;62235;52.160;7.526;2022-09-09T02:44:34;5.60;;;3.33;;
73900;SDS011;62235;52.160;7.526;2022-09-09T02:47:07;5.50;;;3.63;;
73900;SDS011;62235;52.160;7.526;2022-09-09T02:52:18;7.82;;;3.83;;
73900;SDS011;62235;52.160;7.526;2022-09-09T02:54:47;6.20;;;4.00;;
73900;SDS011;62235;52.160;7.526;2022-09-09T02:57:19;6.05;;;3.92;;
73900;SDS011;62235;52.160;7.526;2022-09-09T02:59:47;4.47;;;3.40;;
73900;SDS011;62235;52.160;7.526;2022-09-09T03:02:13;6.80;;;4.15;;
73900;SDS011;62235;52.160;7.526;2022-09-09T03:04:39;4.17;;;3.40;;
73900;SDS011;62235;52.160;7.526;2022-09-09T03:07:05;7.20;;;3.63;;
73900;SDS011;62235;52.160;7.526;2022-09-09T03:09:30;5.82;;;3.92;;
73900;SDS011;62235;52.160;7.526;2022-09-09T03:11:56;6.70;;;3.83;;
73900;SDS011;62235;52.160;7.526;2022-09-09T03:14:22;8.48;;;4.10;;
73900;SDS011;62235;52.160;7.526;2022-09-09T03:16:50;6.07;;;3.78;;
73900;SDS011;62235;52.160;7.526;2022-09-09T03:19:16;5.68;;;3.63;;
73900;SDS011;62235;52.160;7.526;2022-09-09T03:21:41;5.10;;;3.40;;
73900;SDS011;62235;52.160;7.526;2022-09-09T03:24:06;4.50;;;3.70;;
73900;SDS011;62235;52.160;7.526;2022-09-09T03:26:32;6.37;;;3.37;;
73900;SDS011;62235;52.160;7.526;2022-09-09T03:28:57;6.47;;;3.33;;
73900;SDS011;62235;52.160;7.526;2022-09-09T03:31:25;6.38;;;3.33;;
73900;SDS011;62235;52.160;7.526;2022-09-09T03:33:50;4.00;;;3.10;;
73900;SDS011;62235;52.160;7.526;2022-09-09T03:36:15;6.27;;;3.17;;
73900;SDS011;62235;52.160;7.526;2022-09-09T03:38:41;5.57;;;3.30;;
73900;SDS011;62235;52.160;7.526;2022-09-09T03:41:06;5.13;;;3.13;;
73900;SDS011;62235;52.160;7.526;2022-09-09T03:43:32;4.88;;;2.92;;
73900;SDS011;62235;52.160;7.526;2022-09-09T03:45:58;3.33;;;2.63;;
73900;SDS011;62235;52.160;7.526;2022-09-09T03:48:23;6.13;;;2.97;;
73900;SDS011;62235;52.160;7.526;2022-09-09T03:50:50;4.28;;;2.90;;
73900;SDS011;62235;52.160;7.526;2022-09-09T03:53:17;4.40;;;2.65;;
73900;SDS011;62235;52.160;7.526;2022-09-09T03:55:44;5.95;;;3.20;;
73900;SDS011;62235;52.160;7.526;2022-09-09T03:58:14;6.82;;;3.10;;
73900;SDS011;62235;52.160;7.526;2022-09-09T04:00:39;7.90;;;3.95;;
73900;SDS011;62235;52.160;7.526;2022-09-09T04:03:08;5.28;;;3.20;;
73900;SDS011;62235;52.160;7.526;2022-09-09T04:05:34;6.93;;;3.60;;
73900;SDS011;62235;52.160;7.526;2022-09-09T04:08:00;4.25;;;3.13;;
73900;SDS011;62235;52.160;7.526;2022-09-09T04:10:25;5.03;;;3.00;;
73900;SDS011;62235;52.160;7.526;2022-09-09T04:12:51;5.57;;;3.00;;
73900;SDS011;62235;52.160;7.526;2022-09-09T04:15:17;7.32;;;3.80;;
73900;SDS011;62235;52.160;7.526;2022-09-09T04:17:43;5.80;;;3.40;;
73900;SDS011;62235;52.160;7.526;2022-09-09T04:20:08;6.40;;;2.80;;
73900;SDS011;62235;52.160;7.526;2022-09-09T04:22:37;4.60;;;2.88;;
73900;SDS011;62235;52.160;7.526;2022-09-09T04:25:03;7.10;;;3.20;;
73900;SDS011;62235;52.160;7.526;2022-09-09T04:27:30;6.63;;;3.13;;
73900;SDS011;62235;52.160;7.526;2022-09-09T04:29:56;4.88;;;3.20;;
73900;SDS011;62235;52.160;7.526;2022-09-09T04:32:22;5.38;;;3.00;;
73900;SDS011;62235;52.160;7.526;2022-09-09T04:34:48;4.63;;;3.30;;
73900;SDS011;62235;52.160;7.526;2022-09-09T04:37:13;7.05;;;3.00;;
73900;SDS011;62235;52.160;7.526;2022-09-09T04:39:39;3.60;;;2.80;;
73900;SDS011;62235;52.160;7.526;2022-09-09T04:42:04;6.23;;;2.70;;
73900;SDS011;62235;52.160;7.526;2022-09-09T04:44:29;6.22;;;3.08;;
73900;SDS011;62235;52.160;7.526;2022-09-09T04:46:55;6.63;;;3.22;;
73900;SDS011;62235;52.160;7.526;2022-09-09T04:49:21;9.63;;;3.72;;
73900;SDS011;62235;52.160;7.526;2022-09-09T04:51:48;4.97;;;2.88;;
73900;SDS011;62235;52.160;7.526;2022-09-09T04:54:14;4.38;;;2.58;;
73900;SDS011;62235;52.160;7.526;2022-09-09T04:56:39;6.65;;;3.22;;
73900;SDS011;62235;52.160;7.526;2022-09-09T04:59:06;5.90;;;2.88;;
73900;SDS011;62235;52.160;7.526;2022-09-09T05:01:32;5.25;;;3.00;;
73900;SDS011;62235;52.160;7.526;2022-09-09T05:03:57;7.97;;;2.85;;
73900;SDS011;62235;52.160;7.526;2022-09-09T05:06:23;7.60;;;3.17;;
73900;SDS011;62235;52.160;7.526;2022-09-09T05:08:48;4.93;;;2.83;;
73900;SDS011;62235;52.160;7.526;2022-09-09T05:13:48;7.18;;;2.92;;
73900;SDS011;62235;52.160;7.526;2022-09-09T05:16:15;4.50;;;2.85;;
73900;SDS011;62235;52.160;7.526;2022-09-09T05:18:41;4.90;;;2.72;;
73900;SDS011;62235;52.160;7.526;2022-09-09T05:23:38;7.63;;;3.20;;
73900;SDS011;62235;52.160;7.526;2022-09-09T05:26:04;7.75;;;3.17;;
73900;SDS011;62235;52.160;7.526;2022-09-09T05:28:30;7.32;;;3.17;;
73900;SDS011;62235;52.160;7.526;2022-09-09T05:31:14;7.50;;;2.85;;
73900;SDS011;62235;52.160;7.526;2022-09-09T05:33:41;9.27;;;2.97;;
73900;SDS011;62235;52.160;7.526;2022-09-09T05:36:09;7.15;;;2.63;;
73900;SDS011;62235;52.160;7.526;2022-09-09T05:38:38;8.52;;;3.00;;
73900;SDS011;62235;52.160;7.526;2022-09-09T05:41:04;8.02;;;4.53;;
73900;SDS011;62235;52.160;7.526;2022-09-09T05:43:30;5.15;;;2.85;;
73900;SDS011;62235;52.160;7.526;2022-09-09T05:48:33;4.65;;;3.20;;
73900;SDS011;62235;52.160;7.526;2022-09-09T05:50:59;4.90;;;2.75;;
73900;SDS011;62235;52.160;7.526;2022-09-09T05:53:28;8.63;;;3.20;;
73900;SDS011;62235;52.160;7.526;2022-09-09T05:56:00;6.20;;;3.03;;
73900;SDS011;62235;52.160;7.526;2022-09-09T05:58:28;7.70;;;3.17;;
73900;SDS011;62235;52.160;7.526;2022-09-09T06:00:59;7.05;;;3.13;;
73900;SDS011;62235;52.160;7.526;2022-09-09T06:03:45;5.15;;;2.92;;
73900;SDS011;62235;52.160;7.526;2022-09-09T06:06:19;6.32;;;3.30;;
73900;SDS011;62235;52.160;7.526;2022-09-09T06:08:52;4.93;;;3.13;;
73900;SDS011;62235;52.160;7.526;2022-09-09T06:11:20;6.93;;;2.97;;
73900;SDS011;62235;52.160;7.526;2022-09-09T06:13:46;7.07;;;3.22;;
73900;SDS011;62235;52.160;7.526;2022-09-09T06:16:13;11.23;;;3.67;;
73900;SDS011;62235;52.160;7.526;2022-09-09T06:18:40;8.13;;;3.10;;
73900;SDS011;62235;52.160;7.526;2022-09-09T06:21:07;4.90;;;3.05;;
73900;SDS011;62235;52.160;7.526;2022-09-09T06:23:34;4.53;;;3.30;;
73900;SDS011;62235;52.160;7.526;2022-09-09T06:26:04;7.40;;;3.47;;
73900;SDS011;62235;52.160;7.526;2022-09-09T06:28:30;5.68;;;3.17;;
73900;SDS011;62235;52.160;7.526;2022-09-09T06:30:57;5.88;;;2.50;;
73900;SDS011;62235;52.160;7.526;2022-09-09T06:33:23;7.47;;;2.80;;
73900;SDS011;62235;52.160;7.526;2022-09-09T06:35:52;4.80;;;2.90;;
73900;SDS011;62235;52.160;7.526;2022-09-09T06:38:18;6.15;;;2.85;;
73900;SDS011;62235;52.160;7.526;2022-09-09T06:40:50;7.82;;;3.03;;
73900;SDS011;62235;52.160;7.526;2022-09-09T06:43:16;6.50;;;2.80;;
73900;SDS011;62235;52.160;7.526;2022-09-09T06:45:42;14.52;;;9.23;;
73900;SDS011;62235;52.160;7.526;2022-09-09T06:48:08;7.47;;;4.72;;
73900;SDS011;62235;52.160;7.526;2022-09-09T06:50:33;6.85;;;3.20;;
73900;SDS011;62235;52.160;7.526;2022-09-09T06:52:59;9.15;;;2.83;;
73900;SDS011;62235;52.160;7.526;2022-09-09T06:55:25;5.27;;;2.37;;
73900;SDS011;62235;52.160;7.526;2022-09-09T06:57:50;7.00;;;2.70;;
73900;SDS011;62235;52.160;7.526;2022-09-09T07:00:16;9.07;;;2.97;;
73900;SDS011;62235;52.160;7.526;2022-09-09T07:02:41;5.82;;;2.38;;
73900;SDS011;62235;52.160;7.526;2022-09-09T07:05:07;4.50;;;2.30;;
73900;SDS011;62235;52.160;7.526;2022-09-09T07:07:33;4.55;;;2.20;;
73900;SDS011;62235;52.160;7.526;2022-09-09T07:09:58;4.97;;;2.45;;
73900;SDS011;62235;52.160;7.526;2022-09-09T07:12:24;4.50;;;2.60;;
73900;SDS011;62235;52.160;7.526;2022-09-09T07:14:49;5.50;;;2.70;;
73900;SDS011;62235;52.160;7.526;2022-09-09T07:17:14;5.30;;;2.67;;
73900;SDS011;62235;52.160;7.526;2022-09-09T07:19:40;4.90;;;2.63;;
73900;SDS011;62235;52.160;7.526;2022-09-09T07:22:05;7.22;;;2.55;;
73900;SDS011;62235;52.160;7.526;2022-09-09T07:24:31;5.40;;;2.45;;
73900;SDS011;62235;52.160;7.526;2022-09-09T07:26:56;4.78;;;2.58;;
73900;SDS011;62235;52.160;7.526;2022-09-09T07:29:22;7.75;;;2.72;;
73900;SDS011;62235;52.160;7.526;2022-09-09T07:31:47;6.77;;;2.60;;
73900;SDS011;62235;52.160;7.526;2022-09-09T07:34:13;8.20;;;3.03;;
73900;SDS011;62235;52.160;7.526;2022-09-09T07:36:39;7.30;;;2.70;;
73900;SDS011;62235;52.160;7.526;2022-09-09T07:39:11;6.38;;;2.08;;
73900;SDS011;62235;52.160;7.526;2022-09-09T07:41:42;5.03;;;2.55;;
73900;SDS011;62235;52.160;7.526;2022-09-09T07:44:14;5.95;;;2.25;;
73900;SDS011;62235;52.160;7.526;2022-09-09T07:46:40;6.10;;;2.20;;
73900;SDS011;62235;52.160;7.526;2022-09-09T07:49:06;5.93;;;2.50;;
73900;SDS011;62235;52.160;7.526;2022-09-09T07:51:33;5.55;;;2.40;;
73900;SDS011;62235;52.160;7.526;2022-09-09T07:54:01;6.45;;;2.38;;
73900;SDS011;62235;52.160;7.526;2022-09-09T07:56:30;9.02;;;2.25;;
73900;SDS011;62235;52.160;7.526;2022-09-09T07:58:56;4.15;;;2.30;;
73900;SDS011;62235;52.160;7.526;2022-09-09T08:01:27;7.18;;;2.38;;
73900;SDS011;62235;52.160;7.526;2022-09-09T08:03:58;5.53;;;2.20;;
73900;SDS011;62235;52.160;7.526;2022-09-09T08:06:30;6.47;;;2.10;;
73900;SDS011;62235;52.160;7.526;2022-09-09T08:08:58;6.82;;;2.20;;
73900;SDS011;62235;52.160;7.526;2022-09-09T08:11:24;5.55;;;1.98;;
73900;SDS011;62235;52.160;7.526;2022-09-09T08:13:51;5.25;;;1.85;;
73900;SDS011;62235;52.160;7.526;2022-09-09T08:16:17;6.75;;;1.80;;
73900;SDS011;62235;52.160;7.526;2022-09-09T08:18:46;4.07;;;1.75;;
73900;SDS011;62235;52.160;7.526;2022-09-09T08:21:14;5.75;;;1.80;;
73900;SDS011;62235;52.160;7.526;2022-09-09T08:23:40;5.45;;;2.10;;
73900;SDS011;62235;52.160;7.526;2022-09-09T08:26:16;5.82;;;2.08;;
73900;SDS011;62235;52.160;7.526;2022-09-09T08:28:44;8.75;;;1.77;;
73900;SDS011;62235;52.160;7.526;2022-09-09T08:31:11;9.90;;;1.60;;
73900;SDS011;62235;52.160;7.526;2022-09-09T08:33:43;7.65;;;1.92;;
73900;SDS011;62235;52.160;7.526;2022-09-09T08:36:11;6.40;;;2.08;;
73900;SDS011;62235;52.160;7.526;2022-09-09T08:38:42;6.18;;;1.55;;
73900;SDS011;62235;52.160;7.526;2022-09-09T08:41:15;5.55;;;2.00;;
73900;SDS011;62235;52.160;7.526;2022-09-09T08:43:46;6.00;;;1.60;;
73900;SDS011;62235;52.160;7.526;2022-09-09T08:46:25;6.20;;;1.90;;
73900;SDS011;62235;52.160;7.526;2022-09-09T08:49:01;6.43;;;1.77;;
73900;SDS011;62235;52.160;7.526;2022-09-09T08:51:31;6.88;;;1.70;;
73900;SDS011;62235;52.160;7.526;2022-09-09T08:53:58;6.45;;;1.60;;
73900;SDS011;62235;52.160;7.526;2022-09-09T08:56:25;4.80;;;1.60;;
73900;SDS011;62235;52.160;7.526;2022-09-09T08:58:52;5.40;;;1.75;;
73900;SDS011;62235;52.160;7.526;2022-09-09T09:07:10;6.93;;;2.08;;
73900;SDS011;62235;52.160;7.526;2022-09-09T09:12:32;6.47;;;2.40;;
73900;SDS011;62235;52.160;7.526;2022-09-09T09:15:01;5.82;;;2.08;;
73900;SDS011;62235;52.160;7.526;2022-09-09T09:17:27;6.43;;;2.50;;
73900;SDS011;62235;52.160;7.526;2022-09-09T09:19:56;8.43;;;2.45;;
73900;SDS011;62235;52.160;7.526;2022-09-09T09:22:32;7.28;;;2.72;;
73900;SDS011;62235;52.160;7.526;2022-09-09T09:25:11;8.27;;;2.83;;
73900;SDS011;62235;52.160;7.526;2022-09-09T09:30:19;6.75;;;2.80;;
73900;SDS011;62235;52.160;7.526;2022-09-09T09:32:56;3.90;;;1.80;;
73900;SDS011;62235;52.160;7.526;2022-09-09T09:35:24;8.38;;;2.80;;
73900;SDS011;62235;52.160;7.526;2022-09-09T09:37:50;2.85;;;1.48;;
73900;SDS011;62235;52.160;7.526;2022-09-09T09:40:17;6.60;;;1.90;;
73900;SDS011;62235;52.160;7.526;2022-09-09T09:42:57;6.60;;;2.30;;
73900;SDS011;62235;52.160;7.526;2022-09-09T09:45:27;4.72;;;2.13;;
73900;SDS011;62235;52.160;7.526;2022-09-09T09:50:27;8.45;;;2.42;;
73900;SDS011;62235;52.160;7.526;2022-09-09T09:53:04;7.05;;;2.90;;
73900;SDS011;62235;52.160;7.526;2022-09-09T09:55:31;7.97;;;1.80;;
73900;SDS011;62235;52.160;7.526;2022-09-09T09:58:02;5.85;;;2.22;;
73900;SDS011;62235;52.160;7.526;2022-09-09T10:00:29;9.10;;;2.38;;
73900;SDS011;62235;52.160;7.526;2022-09-09T10:02:55;7.20;;;2.47;;
73900;SDS011;62235;52.160;7.526;2022-09-09T10:05:22;5.13;;;2.03;;
73900;SDS011;62235;52.160;7.526;2022-09-09T10:10:42;5.60;;;2.22;;
73900;SDS011;62235;52.160;7.526;2022-09-09T10:19:00;5.88;;;2.05;;
73900;SDS011;62235;52.160;7.526;2022-09-09T10:27:01;5.95;;;1.50;;
73900;SDS011;62235;52.160;7.526;2022-09-09T10:37:31;4.10;;;1.05;;
73900;SDS011;62235;52.160;7.526;2022-09-09T10:42:56;3.42;;;0.95;;
73900;SDS011;62235;52.160;7.526;2022-09-09T10:46:03;4.90;;;0.90;;
73900;SDS011;62235;52.160;7.526;2022-09-09T10:54:02;4.95;;;1.10;;
73900;SDS011;62235;52.160;7.526;2022-09-09T10:56:36;2.67;;;0.95;;
73900;SDS011;62235;52.160;7.526;2022-09-09T11:01:39;4.80;;;1.13;;
73900;SDS011;62235;52.160;7.526;2022-09-09T11:04:55;4.85;;;1.13;;
73900;SDS011;62235;52.160;7.526;2022-09-09T11:06:59;2.85;;;0.75;;
73900;SDS011;62235;52.160;7.526;2022-09-09T11:09:31;4.15;;;1.00;;
73900;SDS011;62235;52.160;7.526;2022-09-09T11:12:01;1.40;;;0.70;;
73900;SDS011;62235;52.160;7.526;2022-09-09T11:14:36;3.30;;;0.90;;
73900;SDS011;62235;52.160;7.526;2022-09-09T11:17:22;3.13;;;1.13;;
73900;SDS011;62235;52.160;7.526;2022-09-09T11:19:49;2.22;;;1.00;;
73900;SDS011;62235;52.160;7.526;2022-09-09T11:22:23;2.22;;;0.63;;
73900;SDS011;62235;52.160;7.526;2022-09-09T11:35:48;3.08;;;0.98;;
73900;SDS011;62235;52.160;7.526;2022-09-09T11:38:26;5.70;;;1.10;;
73900;SDS011;62235;52.160;7.526;2022-09-09T11:41:09;4.47;;;0.85;;
73900;SDS011;62235;52.160;7.526;2022-09-09T11:46:03;2.80;;;0.85;;
73900;SDS011;62235;52.160;7.526;2022-09-09T11:48:35;3.53;;;0.80;;
73900;SDS011;62235;52.160;7.526;2022-09-09T11:51:07;3.25;;;1.10;;
73900;SDS011;62235;52.160;7.526;2022-09-09T11:53:50;3.28;;;0.80;;
73900;SDS011;62235;52.160;7.526;2022-09-09T11:56:45;3.38;;;1.10;;
73900;SDS011;62235;52.160;7.526;2022-09-09T11:59:20;5.95;;;1.50;;
73900;SDS011;62235;52.160;7.526;2022-09-09T12:02:30;2.85;;;1.10;;
73900;SDS011;62235;52.160;7.526;2022-09-09T12:04:46;3.92;;;1.15;;
73900;SDS011;62235;52.160;7.526;2022-09-09T12:07:24;2.47;;;1.40;;
73900;SDS011;62235;52.160;7.526;2022-09-09T12:09:59;5.32;;;1.70;;
73900;SDS011;62235;52.160;7.526;2022-09-09T12:12:30;3.90;;;1.20;;
73900;SDS011;62235;52.160;7.526;2022-09-09T12:17:41;3.70;;;1.17;;
73900;SDS011;62235;52.160;7.526;2022-09-09T12:22:54;4.22;;;1.20;;
73900;SDS011;62235;52.160;7.526;2022-09-09T12:25:41;3.83;;;1.20;;
73900;SDS011;62235;52.160;7.526;2022-09-09T12:33:36;3.75;;;1.20;;
73900;SDS011;62235;52.160;7.526;2022-09-09T12:36:04;2.45;;;1.20;;
73900;SDS011;62235;52.160;7.526;2022-09-09T12:38:35;5.05;;;1.10;;
73900;SDS011;62235;52.160;7.526;2022-09-09T12:41:01;2.05;;;0.95;;
73900;SDS011;62235;52.160;7.526;2022-09-09T12:43:27;4.30;;;1.00;;
73900;SDS011;62235;52.160;7.526;2022-09-09T12:45:57;2.53;;;0.98;;
73900;SDS011;62235;52.160;7.526;2022-09-09T12:48:35;4.30;;;1.00;;
73900;SDS011;62235;52.160;7.526;2022-09-09T12:51:05;1.02;;;0.57;;
73900;SDS011;62235;52.160;7.526;2022-09-09T12:53:35;3.60;;;0.93;;
73900;SDS011;62235;52.160;7.526;2022-09-09T12:56:05;3.40;;;1.05;;
73900;SDS011;62235;52.160;7.526;2022-09-09T12:58:35;2.42;;;0.82;;
73900;SDS011;62235;52.160;7.526;2022-09-09T13:01:02;3.05;;;0.90;;
73900;SDS011;62235;52.160;7.526;2022-09-09T13:03:30;4.30;;;1.05;;
73900;SDS011;62235;52.160;7.526;2022-09-09T13:06:10;2.80;;;0.80;;
73900;SDS011;62235;52.160;7.526;2022-09-09T13:08:37;2.35;;;0.70;;
73900;SDS011;62235;52.160;7.526;2022-09-09T13:11:03;4.63;;;1.00;;
73900;SDS011;62235;52.160;7.526;2022-09-09T13:13:34;2.75;;;0.75;;
73900;SDS011;62235;52.160;7.526;2022-09-09T13:16:03;2.88;;;0.68;;
73900;SDS011;62235;52.160;7.526;2022-09-09T13:18:33;3.03;;;0.65;;
73900;SDS011;62235;52.160;7.526;2022-09-09T13:21:00;1.83;;;0.70;;
73900;SDS011;62235;52.160;7.526;2022-09-09T13:23:29;3.63;;;0.80;;
73900;SDS011;62235;52.160;7.526;2022-09-09T13:25:59;2.40;;;0.60;;
73900;SDS011;62235;52.160;7.526;2022-09-09T13:28:26;3.67;;;0.88;;
73900;SDS011;62235;52.160;7.526;2022-09-09T13:31:04;3.90;;;0.70;;
73900;SDS011;62235;52.160;7.526;2022-09-09T13:33:38;2.92;;;0.80;;
73900;SDS011;62235;52.160;7.526;2022-09-09T13:36:04;3.05;;;0.80;;
73900;SDS011;62235;52.160;7.526;2022-09-09T13:38:31;2.97;;;1.00;;
73900;SDS011;62235;52.160;7.526;2022-09-09T13:41:03;2.33;;;0.80;;
73900;SDS011;62235;52.160;7.526;2022-09-09T13:43:43;2.63;;;0.90;;
73900;SDS011;62235;52.160;7.526;2022-09-09T13:46:31;2.90;;;0.90;;
73900;SDS011;62235;52.160;7.526;2022-09-09T13:49:00;1.67;;;0.60;;
73900;SDS011;62235;52.160;7.526;2022-09-09T13:51:37;3.50;;;1.05;;
73900;SDS011;62235;52.160;7.526;2022-09-09T13:54:04;2.42;;;1.00;;
73900;SDS011;62235;52.160;7.526;2022-09-09T13:56:32;2.55;;;1.00;;
73900;SDS011;62235;52.160;7.526;2022-09-09T13:58:58;3.45;;;1.05;;
73900;SDS011;62235;52.160;7.526;2022-09-09T14:01:23;3.47;;;1.02;;
73900;SDS011;62235;52.160;7.526;2022-09-09T14:03:49;4.18;;;1.20;;
73900;SDS011;62235;52.160;7.526;2022-09-09T14:06:14;2.63;;;1.00;;
73900;SDS011;62235;52.160;7.526;2022-09-09T14:08:39;4.40;;;1.10;;
73900;SDS011;62235;52.160;7.526;2022-09-09T14:11:05;2.40;;;0.98;;
73900;SDS011;62235;52.160;7.526;2022-09-09T14:13:31;2.80;;;1.00;;
73900;SDS011;62235;52.160;7.526;2022-09-09T14:15:57;4.03;;;1.17;;
73900;SDS011;62235;52.160;7.526;2022-09-09T14:18:22;3.50;;;1.00;;
73900;SDS011;62235;52.160;7.526;2022-09-09T14:20:48;2.05;;;1.00;;
73900;SDS011;62235;52.160;7.526;2022-09-09T14:23:15;1.67;;;0.95;;
73900;SDS011;62235;52.160;7.526;2022-09-09T14:25:41;4.40;;;1.15;;
73900;SDS011;62235;52.160;7.526;2022-09-09T14:28:08;2.30;;;1.00;;
73900;SDS011;62235;52.160;7.526;2022-09-09T14:30:34;4.53;;;1.60;;
73900;SDS011;62235;52.160;7.526;2022-09-09T14:33:02;3.67;;;1.40;;
73900;SDS011;62235;52.160;7.526;2022-09-09T14:35:27;6.93;;;1.80;;
73900;SDS011;62235;52.160;7.526;2022-09-09T14:37:53;1.33;;;1.10;;
73900;SDS011;62235;52.160;7.526;2022-09-09T14:40:20;2.08;;;1.30;;
73900;SDS011;62235;52.160;7.526;2022-09-09T14:42:45;3.07;;;1.47;;
73900;SDS011;62235;52.160;7.526;2022-09-09T14:45:10;3.10;;;1.70;;
73900;SDS011;62235;52.160;7.526;2022-09-09T14:47:36;4.10;;;2.13;;
73900;SDS011;62235;52.160;7.526;2022-09-09T14:50:03;3.13;;;2.05;;
73900;SDS011;62235;52.160;7.526;2022-09-09T14:52:30;2.92;;;2.00;;
73900;SDS011;62235;52.160;7.526;2022-09-09T14:54:55;2.70;;;1.90;;
73900;SDS011;62235;52.160;7.526;2022-09-09T14:57:20;3.33;;;1.67;;
73900;SDS011;62235;52.160;7.526;2022-09-09T14:59:46;3.23;;;1.60;;
73900;SDS011;62235;52.160;7.526;2022-09-09T15:02:11;2.00;;;1.50;;
73900;SDS011;62235;52.160;7.526;2022-09-09T15:04:38;4.35;;;1.85;;
73900;SDS011;62235;52.160;7.526;2022-09-09T15:07:04;4.25;;;1.92;;
73900;SDS011;62235;52.160;7.526;2022-09-09T15:09:29;4.07;;;1.67;;
73900;SDS011;62235;52.160;7.526;2022-09-09T15:11:55;2.53;;;2.08;;
73900;SDS011;62235;52.160;7.526;2022-09-09T15:14:20;5.15;;;1.85;;
73900;SDS011;62235;52.160;7.526;2022-09-09T15:16:45;3.37;;;1.63;;
73900;SDS011;62235;52.160;7.526;2022-09-09T15:19:11;2.28;;;1.60;;
73900;SDS011;62235;52.160;7.526;2022-09-09T15:21:36;2.05;;;1.40;;
73900;SDS011;62235;52.160;7.526;2022-09-09T15:24:03;2.85;;;1.45;;
73900;SDS011;62235;52.160;7.526;2022-09-09T15:26:29;4.72;;;1.77;;
73900;SDS011;62235;52.160;7.526;2022-09-09T15:28:55;2.72;;;1.20;;
73900;SDS011;62235;52.160;7.526;2022-09-09T15:31:21;2.88;;;1.17;;
73900;SDS011;62235;52.160;7.526;2022-09-09T15:33:51;3.35;;;1.35;;
73900;SDS011;62235;52.160;7.526;2022-09-09T15:36:19;7.30;;;1.27;;
73900;SDS011;62235;52.160;7.526;2022-09-09T15:38:46;1.90;;;1.20;;
73900;SDS011;62235;52.160;7.526;2022-09-09T15:41:12;1.30;;;0.80;;
73900;SDS011;62235;52.160;7.526;2022-09-09T15:43:38;1.65;;;0.73;;
73900;SDS011;62235;52.160;7.526;2022-09-09T15:46:12;2.95;;;0.88;;
73900;SDS011;62235;52.160;7.526;2022-09-09T15:48:53;2.42;;;0.70;;
73900;SDS011;62235;52.160;7.526;2022-09-09T15:51:19;2.92;;;0.85;;
73900;SDS011;62235;52.160;7.526;2022-09-09T15:53:44;3.40;;;0.95;;
73900;SDS011;62235;52.160;7.526;2022-09-09T15:56:10;2.97;;;0.70;;
73900;SDS011;62235;52.160;7.526;2022-09-09T15:58:35;2.03;;;0.60;;
73900;SDS011;62235;52.160;7.526;2022-09-09T16:01:08;4.45;;;0.80;;
73900;SDS011;62235;52.160;7.526;2022-09-09T16:03:34;3.55;;;0.80;;
73900;SDS011;62235;52.160;7.526;2022-09-09T16:06:00;3.58;;;0.65;;
73900;SDS011;62235;52.160;7.526;2022-09-09T16:08:35;4.65;;;1.30;;
73900;SDS011;62235;52.160;7.526;2022-09-09T16:13:54;2.58;;;0.80;;
73900;SDS011;62235;52.160;7.526;2022-09-09T16:16:21;2.05;;;0.70;;
73900;SDS011;62235;52.160;7.526;2022-09-09T16:18:53;2.80;;;0.90;;
73900;SDS011;62235;52.160;7.526;2022-09-09T16:21:21;2.92;;;1.00;;
73900;SDS011;62235;52.160;7.526;2022-09-09T16:23:51;2.35;;;1.17;;
73900;SDS011;62235;52.160;7.526;2022-09-09T16:26:18;2.42;;;0.88;;
73900;SDS011;62235;52.160;7.526;2022-09-09T16:28:44;3.42;;;0.80;;
73900;SDS011;62235;52.160;7.526;2022-09-09T16:31:13;1.58;;;0.95;;
73900;SDS011;62235;52.160;7.526;2022-09-09T16:33:42;3.25;;;1.38;;
73900;SDS011;62235;52.160;7.526;2022-09-09T16:36:08;3.53;;;1.27;;
73900;SDS011;62235;52.160;7.526;2022-09-09T16:38:36;1.92;;;1.00;;
73900;SDS011;62235;52.160;7.526;2022-09-09T16:41:02;2.92;;;1.17;;
73900;SDS011;62235;52.160;7.526;2022-09-09T16:43:29;4.07;;;1.40;;
73900;SDS011;62235;52.160;7.526;2022-09-09T16:45:55;5.20;;;1.65;;
73900;SDS011;62235;52.160;7.526;2022-09-09T16:48:20;4.93;;;1.50;;